sensor_id;sensor_type;location;lat;lon;timestamp;P1;durP1;ratioP1;P2;durP2;ratioP2
30505;SDS011;17292;51.600;4.994;2024-01-15T00:00:45;2.10;;;2.00;;
30505;SDS011;17292;51.600;4.994;2024-01-15T00:03:12;2.40;;;2.25;;
30505;SDS011;17292;51.600;4.994;2024-01-15T00:05:38;3.00;;;2.30;;
30505;SDS011;17292;51.600;4.994;2024-01-15T00:08:04;2.47;;;2.28;;
30505;SDS011;17292;51.600;4.994;2024-01-15T00:10:30;2.50;;;2.40;;
30505;SDS011;17292;51.600;4.994;2024-01-15T00:12:56;2.10;;;2.00;;
30505;SDS011;17292;51.600;4.994;2024-01-15T00:15:22;2.20;;;2.10;;
30505;SDS011;17292;51.600;4.994;2024-01-15T00:17:49;2.20;;;2.10;;
30505;SDS011;17292;51.600;4.994;2024-01-15T00:20:15;2.45;;;2.25;;
30505;SDS011;17292;51.600;4.994;2024-01-15T00:22:41;2.25;;;2.13;;
30505;SDS011;17292;51.600;4.994;2024-01-15T00:25:07;2.70;;;2.50;;
30505;SDS011;17292;51.600;4.994;2024-01-15T00:27:33;2.20;;;2.10;;
30505;SDS011;17292;51.600;4.994;2024-01-15T00:29:59;2.25;;;2.08;;
30505;SDS011;17292;51.600;4.994;2024-01-15T00:32:26;2.30;;;2.20;;
30505;SDS011;17292;51.600;4.994;2024-01-15T00:34:52;3.42;;;2.05;;
30505;SDS011;17292;51.600;4.994;2024-01-15T00:37:18;2.10;;;2.00;;
30505;SDS011;17292;51.600;4.994;2024-01-15T00:39:44;2.20;;;2.08;;
30505;SDS011;17292;51.600;4.994;2024-01-15T00:42:10;2.08;;;1.98;;
30505;SDS011;17292;51.600;4.994;2024-01-15T00:44:36;2.53;;;2.30;;
30505;SDS011;17292;51.600;4.994;2024-01-15T00:47:02;2.25;;;2.05;;
30505;SDS011;17292;51.600;4.994;2024-01-15T00:49:29;2.25;;;2.10;;
30505;SDS011;17292;51.600;4.994;2024-01-15T00:51:55;2.05;;;1.85;;
30505;SDS011;17292;51.600;4.994;2024-01-15T00:54:21;2.17;;;2.08;;
30505;SDS011;17292;51.600;4.994;2024-01-15T00:56:47;1.95;;;1.85;;
30505;SDS011;17292;51.600;4.994;2024-01-15T00:59:13;2.00;;;1.90;;
30505;SDS011;17292;51.600;4.994;2024-01-15T01:01:40;2.40;;;2.20;;
30505;SDS011;17292;51.600;4.994;2024-01-15T01:04:08;2.00;;;1.90;;
30505;SDS011;17292;51.600;4.994;2024-01-15T01:06:35;2.20;;;2.10;;
30505;SDS011;17292;51.600;4.994;2024-01-15T01:09:01;2.47;;;2.28;;
30505;SDS011;17292;51.600;4.994;2024-01-15T01:11:27;2.72;;;2.42;;
30505;SDS011;17292;51.600;4.994;2024-01-15T01:13:53;2.63;;;2.45;;
30505;SDS011;17292;51.600;4.994;2024-01-15T01:16:21;2.28;;;2.17;;
30505;SDS011;17292;51.600;4.994;2024-01-15T01:18:47;2.50;;;2.30;;
30505;SDS011;17292;51.600;4.994;2024-01-15T01:21:13;2.40;;;2.20;;
30505;SDS011;17292;51.600;4.994;2024-01-15T01:23:39;2.58;;;2.38;;
30505;SDS011;17292;51.600;4.994;2024-01-15T01:26:06;1.90;;;1.80;;
30505;SDS011;17292;51.600;4.994;2024-01-15T01:28:32;1.90;;;1.80;;
30505;SDS011;17292;51.600;4.994;2024-01-15T01:30:58;2.78;;;2.28;;
30505;SDS011;17292;51.600;4.994;2024-01-15T01:33:25;2.35;;;2.25;;
30505;SDS011;17292;51.600;4.994;2024-01-15T01:35:51;2.50;;;2.30;;
30505;SDS011;17292;51.600;4.994;2024-01-15T01:38:18;2.10;;;2.00;;
30505;SDS011;17292;51.600;4.994;2024-01-15T01:40:44;2.20;;;2.10;;
30505;SDS011;17292;51.600;4.994;2024-01-15T01:43:10;2.25;;;2.15;;
30505;SDS011;17292;51.600;4.994;2024-01-15T01:45:37;1.90;;;1.80;;
30505;SDS011;17292;51.600;4.994;2024-01-15T01:48:04;2.42;;;2.22;;
30505;SDS011;17292;51.600;4.994;2024-01-15T01:50:30;2.17;;;2.08;;
30505;SDS011;17292;51.600;4.994;2024-01-15T01:52:57;2.63;;;2.42;;
30505;SDS011;17292;51.600;4.994;2024-01-15T01:55:24;2.65;;;2.45;;
30505;SDS011;17292;51.600;4.994;2024-01-15T01:57:52;2.60;;;2.50;;
30505;SDS011;17292;51.600;4.994;2024-01-15T02:00:18;2.30;;;2.20;;
30505;SDS011;17292;51.600;4.994;2024-01-15T02:02:45;2.40;;;2.20;;
30505;SDS011;17292;51.600;4.994;2024-01-15T02:05:11;1.80;;;1.70;;
30505;SDS011;17292;51.600;4.994;2024-01-15T02:07:38;2.30;;;2.20;;
30505;SDS011;17292;51.600;4.994;2024-01-15T02:10:04;2.40;;;2.20;;
30505;SDS011;17292;51.600;4.994;2024-01-15T02:12:31;2.50;;;2.35;;
30505;SDS011;17292;51.600;4.994;2024-01-15T02:14:57;2.35;;;2.15;;
30505;SDS011;17292;51.600;4.994;2024-01-15T02:17:23;2.40;;;2.30;;
30505;SDS011;17292;51.600;4.994;2024-01-15T02:19:49;2.25;;;2.13;;
30505;SDS011;17292;51.600;4.994;2024-01-15T02:22:16;2.28;;;2.17;;
30505;SDS011;17292;51.600;4.994;2024-01-15T02:24:42;2.17;;;2.08;;
30505;SDS011;17292;51.600;4.994;2024-01-15T02:27:09;2.45;;;2.25;;
30505;SDS011;17292;51.600;4.994;2024-01-15T02:29:35;2.30;;;2.10;;
30505;SDS011;17292;51.600;4.994;2024-01-15T02:32:05;2.22;;;2.13;;
30505;SDS011;17292;51.600;4.994;2024-01-15T02:34:32;2.33;;;2.20;;
30505;SDS011;17292;51.600;4.994;2024-01-15T02:36:58;4.70;;;2.10;;
30505;SDS011;17292;51.600;4.994;2024-01-15T02:39:24;1.80;;;1.70;;
30505;SDS011;17292;51.600;4.994;2024-01-15T02:41:50;2.10;;;2.00;;
30505;SDS011;17292;51.600;4.994;2024-01-15T02:44:16;2.67;;;2.13;;
30505;SDS011;17292;51.600;4.994;2024-01-15T02:46:42;2.05;;;1.95;;
30505;SDS011;17292;51.600;4.994;2024-01-15T02:49:08;2.47;;;2.28;;
30505;SDS011;17292;51.600;4.994;2024-01-15T02:51:35;2.00;;;1.90;;
30505;SDS011;17292;51.600;4.994;2024-01-15T02:54:01;2.15;;;2.00;;
30505;SDS011;17292;51.600;4.994;2024-01-15T02:56:27;2.67;;;2.47;;
30505;SDS011;17292;51.600;4.994;2024-01-15T02:58:53;2.50;;;2.30;;
30505;SDS011;17292;51.600;4.994;2024-01-15T03:01:19;2.30;;;2.10;;
30505;SDS011;17292;51.600;4.994;2024-01-15T03:03:45;2.15;;;1.85;;
30505;SDS011;17292;51.600;4.994;2024-01-15T03:06:11;2.10;;;2.00;;
30505;SDS011;17292;51.600;4.994;2024-01-15T03:08:38;2.28;;;2.17;;
30505;SDS011;17292;51.600;4.994;2024-01-15T03:11:04;2.20;;;2.10;;
30505;SDS011;17292;51.600;4.994;2024-01-15T03:13:30;2.28;;;2.17;;
30505;SDS011;17292;51.600;4.994;2024-01-15T03:15:56;2.15;;;2.05;;
30505;SDS011;17292;51.600;4.994;2024-01-15T03:18:22;2.50;;;2.30;;
30505;SDS011;17292;51.600;4.994;2024-01-15T03:20:48;2.00;;;1.90;;
30505;SDS011;17292;51.600;4.994;2024-01-15T03:23:14;2.10;;;2.00;;
30505;SDS011;17292;51.600;4.994;2024-01-15T03:25:40;1.92;;;1.83;;
30505;SDS011;17292;51.600;4.994;2024-01-15T03:28:07;2.50;;;2.30;;
30505;SDS011;17292;51.600;4.994;2024-01-15T03:30:33;2.40;;;1.92;;
30505;SDS011;17292;51.600;4.994;2024-01-15T03:32:59;2.50;;;2.30;;
30505;SDS011;17292;51.600;4.994;2024-01-15T03:35:25;2.10;;;2.00;;
30505;SDS011;17292;51.600;4.994;2024-01-15T03:37:54;2.00;;;1.90;;
30505;SDS011;17292;51.600;4.994;2024-01-15T03:40:20;2.63;;;2.30;;
30505;SDS011;17292;51.600;4.994;2024-01-15T03:42:46;2.65;;;2.45;;
30505;SDS011;17292;51.600;4.994;2024-01-15T03:45:13;2.10;;;2.00;;
30505;SDS011;17292;51.600;4.994;2024-01-15T03:47:39;2.35;;;2.15;;
30505;SDS011;17292;51.600;4.994;2024-01-15T03:50:05;2.13;;;2.03;;
30505;SDS011;17292;51.600;4.994;2024-01-15T03:52:31;2.13;;;2.03;;
30505;SDS011;17292;51.600;4.994;2024-01-15T03:54:57;2.60;;;2.40;;
30505;SDS011;17292;51.600;4.994;2024-01-15T03:57:24;2.20;;;2.00;;
30505;SDS011;17292;51.600;4.994;2024-01-15T03:59:50;2.17;;;2.00;;
30505;SDS011;17292;51.600;4.994;2024-01-15T04:02:17;2.72;;;1.92;;
30505;SDS011;17292;51.600;4.994;2024-01-15T04:04:43;2.22;;;2.10;;
30505;SDS011;17292;51.600;4.994;2024-01-15T04:07:09;2.00;;;1.90;;
30505;SDS011;17292;51.600;4.994;2024-01-15T04:09:36;2.10;;;2.00;;
30505;SDS011;17292;51.600;4.994;2024-01-15T04:12:02;2.22;;;2.13;;
30505;SDS011;17292;51.600;4.994;2024-01-15T04:14:28;1.95;;;1.83;;
30505;SDS011;17292;51.600;4.994;2024-01-15T04:16:54;2.10;;;2.00;;
30505;SDS011;17292;51.600;4.994;2024-01-15T04:19:20;2.13;;;2.03;;
30505;SDS011;17292;51.600;4.994;2024-01-15T04:21:46;2.40;;;2.20;;
30505;SDS011;17292;51.600;4.994;2024-01-15T04:24:12;2.00;;;1.80;;
30505;SDS011;17292;51.600;4.994;2024-01-15T04:26:39;2.25;;;2.15;;
30505;SDS011;17292;51.600;4.994;2024-01-15T04:29:05;2.45;;;2.25;;
30505;SDS011;17292;51.600;4.994;2024-01-15T04:31:31;2.10;;;2.00;;
30505;SDS011;17292;51.600;4.994;2024-01-15T04:33:58;3.05;;;2.10;;
30505;SDS011;17292;51.600;4.994;2024-01-15T04:36:24;2.40;;;2.20;;
30505;SDS011;17292;51.600;4.994;2024-01-15T04:38:50;2.08;;;1.98;;
30505;SDS011;17292;51.600;4.994;2024-01-15T04:41:16;1.92;;;1.83;;
30505;SDS011;17292;51.600;4.994;2024-01-15T04:43:42;2.42;;;2.22;;
30505;SDS011;17292;51.600;4.994;2024-01-15T04:46:08;2.22;;;2.10;;
30505;SDS011;17292;51.600;4.994;2024-01-15T04:48:34;2.03;;;1.92;;
30505;SDS011;17292;51.600;4.994;2024-01-15T04:51:03;2.30;;;2.20;;
30505;SDS011;17292;51.600;4.994;2024-01-15T04:53:29;2.10;;;2.00;;
30505;SDS011;17292;51.600;4.994;2024-01-15T04:55:55;2.22;;;2.13;;
30505;SDS011;17292;51.600;4.994;2024-01-15T04:58:21;2.20;;;2.10;;
30505;SDS011;17292;51.600;4.994;2024-01-15T05:00:51;2.25;;;2.15;;
30505;SDS011;17292;51.600;4.994;2024-01-15T05:03:17;2.28;;;2.17;;
30505;SDS011;17292;51.600;4.994;2024-01-15T05:05:43;2.00;;;1.90;;
30505;SDS011;17292;51.600;4.994;2024-01-15T05:08:09;1.95;;;1.83;;
30505;SDS011;17292;51.600;4.994;2024-01-15T05:10:35;2.40;;;2.20;;
30505;SDS011;17292;51.600;4.994;2024-01-15T05:13:01;2.00;;;1.90;;
30505;SDS011;17292;51.600;4.994;2024-01-15T05:15:27;2.33;;;2.13;;
30505;SDS011;17292;51.600;4.994;2024-01-15T05:17:54;2.30;;;2.10;;
30505;SDS011;17292;51.600;4.994;2024-01-15T05:20:20;2.08;;;1.98;;
30505;SDS011;17292;51.600;4.994;2024-01-15T05:22:47;2.13;;;2.03;;
30505;SDS011;17292;51.600;4.994;2024-01-15T05:25:13;2.25;;;2.10;;
30505;SDS011;17292;51.600;4.994;2024-01-15T05:27:39;2.38;;;2.17;;
30505;SDS011;17292;51.600;4.994;2024-01-15T05:30:09;2.08;;;1.98;;
30505;SDS011;17292;51.600;4.994;2024-01-15T05:32:35;2.38;;;2.17;;
30505;SDS011;17292;51.600;4.994;2024-01-15T05:35:01;2.55;;;2.03;;
30505;SDS011;17292;51.600;4.994;2024-01-15T05:37:27;2.40;;;2.20;;
30505;SDS011;17292;51.600;4.994;2024-01-15T05:39:54;1.90;;;1.80;;
30505;SDS011;17292;51.600;4.994;2024-01-15T05:42:20;2.42;;;2.33;;
30505;SDS011;17292;51.600;4.994;2024-01-15T05:44:46;2.10;;;2.00;;
30505;SDS011;17292;51.600;4.994;2024-01-15T05:47:12;2.10;;;2.00;;
30505;SDS011;17292;51.600;4.994;2024-01-15T05:49:38;2.17;;;2.08;;
30505;SDS011;17292;51.600;4.994;2024-01-15T05:52:05;2.63;;;2.42;;
30505;SDS011;17292;51.600;4.994;2024-01-15T05:54:32;2.60;;;2.40;;
30505;SDS011;17292;51.600;4.994;2024-01-15T05:56:58;2.08;;;1.95;;
30505;SDS011;17292;51.600;4.994;2024-01-15T05:59:25;2.40;;;2.20;;
30505;SDS011;17292;51.600;4.994;2024-01-15T06:01:51;2.50;;;2.30;;
30505;SDS011;17292;51.600;4.994;2024-01-15T06:04:17;2.10;;;2.00;;
30505;SDS011;17292;51.600;4.994;2024-01-15T06:06:43;2.28;;;2.17;;
30505;SDS011;17292;51.600;4.994;2024-01-15T06:09:09;2.50;;;2.30;;
30505;SDS011;17292;51.600;4.994;2024-01-15T06:11:36;2.70;;;2.50;;
30505;SDS011;17292;51.600;4.994;2024-01-15T06:14:02;2.30;;;2.20;;
30505;SDS011;17292;51.600;4.994;2024-01-15T06:16:28;2.58;;;2.38;;
30505;SDS011;17292;51.600;4.994;2024-01-15T06:18:55;2.22;;;2.13;;
30505;SDS011;17292;51.600;4.994;2024-01-15T06:21:28;2.25;;;2.15;;
30505;SDS011;17292;51.600;4.994;2024-01-15T06:23:55;2.55;;;2.42;;
30505;SDS011;17292;51.600;4.994;2024-01-15T06:26:22;2.30;;;2.20;;
30505;SDS011;17292;51.600;4.994;2024-01-15T06:28:49;2.58;;;2.38;;
30505;SDS011;17292;51.600;4.994;2024-01-15T06:31:15;2.13;;;2.00;;
30505;SDS011;17292;51.600;4.994;2024-01-15T06:33:42;2.20;;;2.10;;
30505;SDS011;17292;51.600;4.994;2024-01-15T06:36:13;2.97;;;2.10;;
30505;SDS011;17292;51.600;4.994;2024-01-15T06:38:42;1.95;;;1.85;;
30505;SDS011;17292;51.600;4.994;2024-01-15T06:41:10;2.17;;;1.98;;
30505;SDS011;17292;51.600;4.994;2024-01-15T06:43:39;4.40;;;2.10;;
30505;SDS011;17292;51.600;4.994;2024-01-15T06:46:09;2.60;;;2.40;;
30505;SDS011;17292;51.600;4.994;2024-01-15T06:48:38;3.00;;;2.25;;
30505;SDS011;17292;51.600;4.994;2024-01-15T06:51:05;3.63;;;2.22;;
30505;SDS011;17292;51.600;4.994;2024-01-15T06:53:31;2.60;;;2.40;;
30505;SDS011;17292;51.600;4.994;2024-01-15T06:55:58;2.63;;;2.35;;
30505;SDS011;17292;51.600;4.994;2024-01-15T06:58:24;2.50;;;2.30;;
30505;SDS011;17292;51.600;4.994;2024-01-15T07:00:51;6.20;;;2.17;;
30505;SDS011;17292;51.600;4.994;2024-01-15T07:03:18;2.47;;;2.28;;
30505;SDS011;17292;51.600;4.994;2024-01-15T07:05:44;2.63;;;2.10;;
30505;SDS011;17292;51.600;4.994;2024-01-15T07:08:11;2.30;;;2.20;;
30505;SDS011;17292;51.600;4.994;2024-01-15T07:10:41;4.90;;;2.47;;
30505;SDS011;17292;51.600;4.994;2024-01-15T07:13:10;3.47;;;2.20;;
30505;SDS011;17292;51.600;4.994;2024-01-15T07:15:37;7.35;;;2.25;;
30505;SDS011;17292;51.600;4.994;2024-01-15T07:18:07;9.95;;;2.60;;
30505;SDS011;17292;51.600;4.994;2024-01-15T07:20:34;13.77;;;2.63;;
30505;SDS011;17292;51.600;4.994;2024-01-15T07:23:00;19.05;;;2.78;;
30505;SDS011;17292;51.600;4.994;2024-01-15T07:25:36;18.58;;;3.47;;
30505;SDS011;17292;51.600;4.994;2024-01-15T07:28:03;8.13;;;3.13;;
30505;SDS011;17292;51.600;4.994;2024-01-15T07:30:29;8.40;;;2.40;;
30505;SDS011;17292;51.600;4.994;2024-01-15T07:32:59;11.75;;;2.33;;
30505;SDS011;17292;51.600;4.994;2024-01-15T07:35:25;7.40;;;2.35;;
30505;SDS011;17292;51.600;4.994;2024-01-15T07:37:51;4.45;;;2.10;;
30505;SDS011;17292;51.600;4.994;2024-01-15T07:40:17;4.15;;;2.30;;
30505;SDS011;17292;51.600;4.994;2024-01-15T07:42:43;5.47;;;2.40;;
30505;SDS011;17292;51.600;4.994;2024-01-15T07:45:10;3.33;;;2.25;;
30505;SDS011;17292;51.600;4.994;2024-01-15T07:47:36;3.17;;;2.40;;
30505;SDS011;17292;51.600;4.994;2024-01-15T07:50:03;5.88;;;2.15;;
30505;SDS011;17292;51.600;4.994;2024-01-15T07:52:30;3.60;;;2.08;;
30505;SDS011;17292;51.600;4.994;2024-01-15T07:54:56;11.43;;;2.45;;
30505;SDS011;17292;51.600;4.994;2024-01-15T07:57:24;6.13;;;1.92;;
30505;SDS011;17292;51.600;4.994;2024-01-15T07:59:51;5.97;;;2.10;;
30505;SDS011;17292;51.600;4.994;2024-01-15T08:02:17;6.57;;;2.10;;
30505;SDS011;17292;51.600;4.994;2024-01-15T08:04:43;5.63;;;1.75;;
30505;SDS011;17292;51.600;4.994;2024-01-15T08:07:10;6.65;;;2.20;;
30505;SDS011;17292;51.600;4.994;2024-01-15T08:09:36;3.00;;;1.90;;
30505;SDS011;17292;51.600;4.994;2024-01-15T08:12:02;3.28;;;1.88;;
30505;SDS011;17292;51.600;4.994;2024-01-15T08:14:31;4.70;;;2.10;;
30505;SDS011;17292;51.600;4.994;2024-01-15T08:16:57;3.10;;;2.20;;
30505;SDS011;17292;51.600;4.994;2024-01-15T08:19:23;3.05;;;2.15;;
30505;SDS011;17292;51.600;4.994;2024-01-15T08:21:49;5.47;;;2.10;;
30505;SDS011;17292;51.600;4.994;2024-01-15T08:24:16;8.85;;;2.70;;
30505;SDS011;17292;51.600;4.994;2024-01-15T08:26:42;2.58;;;2.10;;
30505;SDS011;17292;51.600;4.994;2024-01-15T08:29:08;4.70;;;2.53;;
30505;SDS011;17292;51.600;4.994;2024-01-15T08:31:35;8.45;;;2.70;;
30505;SDS011;17292;51.600;4.994;2024-01-15T08:34:01;4.75;;;2.08;;
30505;SDS011;17292;51.600;4.994;2024-01-15T08:36:27;14.50;;;2.38;;
30505;SDS011;17292;51.600;4.994;2024-01-15T08:38:57;4.15;;;1.98;;
30505;SDS011;17292;51.600;4.994;2024-01-15T08:41:24;6.75;;;2.08;;
30505;SDS011;17292;51.600;4.994;2024-01-15T08:43:50;11.18;;;2.67;;
30505;SDS011;17292;51.600;4.994;2024-01-15T08:46:18;8.45;;;2.33;;
30505;SDS011;17292;51.600;4.994;2024-01-15T08:48:44;2.50;;;2.05;;
30505;SDS011;17292;51.600;4.994;2024-01-15T08:51:10;4.60;;;2.50;;
30505;SDS011;17292;51.600;4.994;2024-01-15T08:53:36;8.40;;;2.53;;
30505;SDS011;17292;51.600;4.994;2024-01-15T08:56:02;4.43;;;2.22;;
30505;SDS011;17292;51.600;4.994;2024-01-15T08:58:29;7.45;;;2.63;;
30505;SDS011;17292;51.600;4.994;2024-01-15T09:00:55;7.78;;;2.50;;
30505;SDS011;17292;51.600;4.994;2024-01-15T09:03:21;5.95;;;1.95;;
30505;SDS011;17292;51.600;4.994;2024-01-15T09:05:47;6.85;;;2.13;;
30505;SDS011;17292;51.600;4.994;2024-01-15T09:08:15;3.20;;;2.42;;
30505;SDS011;17292;51.600;4.994;2024-01-15T09:10:41;4.35;;;2.08;;
30505;SDS011;17292;51.600;4.994;2024-01-15T09:13:07;2.70;;;2.28;;
30505;SDS011;17292;51.600;4.994;2024-01-15T09:15:33;9.45;;;2.92;;
30505;SDS011;17292;51.600;4.994;2024-01-15T09:17:59;4.82;;;2.63;;
30505;SDS011;17292;51.600;4.994;2024-01-15T09:20:27;10.70;;;2.22;;
30505;SDS011;17292;51.600;4.994;2024-01-15T09:22:53;9.57;;;2.05;;
30505;SDS011;17292;51.600;4.994;2024-01-15T09:25:19;9.60;;;2.20;;
30505;SDS011;17292;51.600;4.994;2024-01-15T09:27:45;5.05;;;2.38;;
30505;SDS011;17292;51.600;4.994;2024-01-15T09:30:12;7.95;;;2.38;;
30505;SDS011;17292;51.600;4.994;2024-01-15T09:32:38;7.38;;;2.38;;
30505;SDS011;17292;51.600;4.994;2024-01-15T09:35:04;7.10;;;2.08;;
30505;SDS011;17292;51.600;4.994;2024-01-15T09:37:31;10.43;;;2.00;;
30505;SDS011;17292;51.600;4.994;2024-01-15T09:39:57;9.02;;;2.58;;
30505;SDS011;17292;51.600;4.994;2024-01-15T09:42:24;12.73;;;2.60;;
30505;SDS011;17292;51.600;4.994;2024-01-15T09:44:51;6.47;;;2.50;;
30505;SDS011;17292;51.600;4.994;2024-01-15T09:47:18;4.78;;;2.53;;
30505;SDS011;17292;51.600;4.994;2024-01-15T09:49:45;4.50;;;2.75;;
30505;SDS011;17292;51.600;4.994;2024-01-15T09:52:11;5.53;;;2.17;;
30505;SDS011;17292;51.600;4.994;2024-01-15T09:54:37;6.15;;;2.47;;
30505;SDS011;17292;51.600;4.994;2024-01-15T09:57:05;4.78;;;2.45;;
30505;SDS011;17292;51.600;4.994;2024-01-15T09:59:31;6.55;;;2.47;;
30505;SDS011;17292;51.600;4.994;2024-01-15T10:01:58;5.57;;;2.00;;
30505;SDS011;17292;51.600;4.994;2024-01-15T10:04:24;9.68;;;2.72;;
30505;SDS011;17292;51.600;4.994;2024-01-15T10:06:51;7.90;;;2.50;;
30505;SDS011;17292;51.600;4.994;2024-01-15T10:09:17;13.95;;;2.88;;
30505;SDS011;17292;51.600;4.994;2024-01-15T10:11:44;10.20;;;2.72;;
30505;SDS011;17292;51.600;4.994;2024-01-15T10:14:10;7.05;;;2.30;;
30505;SDS011;17292;51.600;4.994;2024-01-15T10:16:40;5.20;;;2.17;;
30505;SDS011;17292;51.600;4.994;2024-01-15T10:19:07;6.05;;;2.10;;
30505;SDS011;17292;51.600;4.994;2024-01-15T10:21:33;4.90;;;2.25;;
30505;SDS011;17292;51.600;4.994;2024-01-15T10:24:00;5.20;;;1.92;;
30505;SDS011;17292;51.600;4.994;2024-01-15T10:26:27;5.65;;;2.55;;
30505;SDS011;17292;51.600;4.994;2024-01-15T10:28:54;6.55;;;2.47;;
30505;SDS011;17292;51.600;4.994;2024-01-15T10:31:20;7.65;;;2.85;;
30505;SDS011;17292;51.600;4.994;2024-01-15T10:33:49;7.88;;;2.22;;
30505;SDS011;17292;51.600;4.994;2024-01-15T10:36:16;6.78;;;2.80;;
30505;SDS011;17292;51.600;4.994;2024-01-15T10:38:43;5.60;;;3.22;;
30505;SDS011;17292;51.600;4.994;2024-01-15T10:41:09;7.90;;;4.15;;
30505;SDS011;17292;51.600;4.994;2024-01-15T10:43:35;8.15;;;3.67;;
30505;SDS011;17292;51.600;4.994;2024-01-15T10:46:01;5.70;;;3.60;;
30505;SDS011;17292;51.600;4.994;2024-01-15T10:48:28;6.32;;;3.65;;
30505;SDS011;17292;51.600;4.994;2024-01-15T10:50:56;7.97;;;3.80;;
30505;SDS011;17292;51.600;4.994;2024-01-15T10:53:23;7.05;;;3.10;;
30505;SDS011;17292;51.600;4.994;2024-01-15T10:55:50;9.00;;;3.22;;
30505;SDS011;17292;51.600;4.994;2024-01-15T10:58:20;4.75;;;3.20;;
30505;SDS011;17292;51.600;4.994;2024-01-15T11:00:48;5.53;;;2.30;;
30505;SDS011;17292;51.600;4.994;2024-01-15T11:03:14;10.25;;;2.40;;
30505;SDS011;17292;51.600;4.994;2024-01-15T11:05:42;5.20;;;2.15;;
30505;SDS011;17292;51.600;4.994;2024-01-15T11:08:08;7.05;;;2.38;;
30505;SDS011;17292;51.600;4.994;2024-01-15T11:10:46;10.23;;;2.28;;
30505;SDS011;17292;51.600;4.994;2024-01-15T11:18:29;6.78;;;2.28;;
30505;SDS011;17292;51.600;4.994;2024-01-15T11:23:50;3.22;;;1.60;;
30505;SDS011;17292;51.600;4.994;2024-01-15T11:29:05;15.18;;;2.60;;
30505;SDS011;17292;51.600;4.994;2024-01-15T11:34:07;7.55;;;2.20;;
30505;SDS011;17292;51.600;4.994;2024-01-15T11:41:56;4.30;;;1.70;;
30505;SDS011;17292;51.600;4.994;2024-01-15T11:44:23;6.82;;;2.35;;
30505;SDS011;17292;51.600;4.994;2024-01-15T11:52:10;7.18;;;2.17;;
30505;SDS011;17292;51.600;4.994;2024-01-15T11:54:40;9.05;;;2.00;;
30505;SDS011;17292;51.600;4.994;2024-01-15T11:57:14;11.95;;;1.63;;
30505;SDS011;17292;51.600;4.994;2024-01-15T11:59:43;9.50;;;1.98;;
30505;SDS011;17292;51.600;4.994;2024-01-15T12:02:09;11.75;;;2.10;;
30505;SDS011;17292;51.600;4.994;2024-01-15T12:04:38;8.05;;;1.60;;
30505;SDS011;17292;51.600;4.994;2024-01-15T12:07:04;9.05;;;1.85;;
30505;SDS011;17292;51.600;4.994;2024-01-15T12:09:30;10.43;;;2.00;;
30505;SDS011;17292;51.600;4.994;2024-01-15T12:12:03;5.57;;;1.63;;
30505;SDS011;17292;51.600;4.994;2024-01-15T12:14:33;7.28;;;1.50;;
30505;SDS011;17292;51.600;4.994;2024-01-15T12:17:00;8.13;;;1.35;;
30505;SDS011;17292;51.600;4.994;2024-01-15T12:19:26;11.48;;;1.80;;
30505;SDS011;17292;51.600;4.994;2024-01-15T12:21:52;5.35;;;2.05;;
30505;SDS011;17292;51.600;4.994;2024-01-15T12:24:19;7.90;;;1.77;;
30505;SDS011;17292;51.600;4.994;2024-01-15T12:26:45;9.27;;;1.98;;
30505;SDS011;17292;51.600;4.994;2024-01-15T12:29:11;11.48;;;2.38;;
30505;SDS011;17292;51.600;4.994;2024-01-15T12:31:37;6.10;;;2.03;;
30505;SDS011;17292;51.600;4.994;2024-01-15T12:34:03;8.52;;;2.42;;
30505;SDS011;17292;51.600;4.994;2024-01-15T12:36:32;12.90;;;2.20;;
30505;SDS011;17292;51.600;4.994;2024-01-15T12:38:59;9.98;;;2.00;;
30505;SDS011;17292;51.600;4.994;2024-01-15T12:41:26;6.95;;;1.85;;
30505;SDS011;17292;51.600;4.994;2024-01-15T12:43:52;12.95;;;2.20;;
30505;SDS011;17292;51.600;4.994;2024-01-15T12:46:18;8.55;;;2.13;;
30505;SDS011;17292;51.600;4.994;2024-01-15T12:48:44;12.52;;;2.72;;
30505;SDS011;17292;51.600;4.994;2024-01-15T12:51:10;13.95;;;2.47;;
30505;SDS011;17292;51.600;4.994;2024-01-15T12:53:36;4.30;;;2.30;;
30505;SDS011;17292;51.600;4.994;2024-01-15T12:56:03;10.55;;;2.05;;
30505;SDS011;17292;51.600;4.994;2024-01-15T12:58:29;8.15;;;2.40;;
30505;SDS011;17292;51.600;4.994;2024-01-15T13:00:55;7.15;;;2.47;;
30505;SDS011;17292;51.600;4.994;2024-01-15T13:03:22;11.48;;;2.72;;
30505;SDS011;17292;51.600;4.994;2024-01-15T13:05:49;5.30;;;2.13;;
30505;SDS011;17292;51.600;4.994;2024-01-15T13:08:16;8.07;;;2.58;;
30505;SDS011;17292;51.600;4.994;2024-01-15T13:10:42;8.00;;;2.40;;
30505;SDS011;17292;51.600;4.994;2024-01-15T13:13:09;3.53;;;1.83;;
30505;SDS011;17292;51.600;4.994;2024-01-15T13:15:35;4.72;;;1.85;;
30505;SDS011;17292;51.600;4.994;2024-01-15T13:18:02;9.20;;;2.30;;
30505;SDS011;17292;51.600;4.994;2024-01-15T13:20:28;9.95;;;2.47;;
30505;SDS011;17292;51.600;4.994;2024-01-15T13:22:54;10.55;;;2.35;;
30505;SDS011;17292;51.600;4.994;2024-01-15T13:25:20;6.95;;;2.30;;
30505;SDS011;17292;51.600;4.994;2024-01-15T13:27:46;12.15;;;2.45;;
30505;SDS011;17292;51.600;4.994;2024-01-15T13:30:12;12.75;;;2.40;;
30505;SDS011;17292;51.600;4.994;2024-01-15T13:32:39;9.57;;;2.50;;
30505;SDS011;17292;51.600;4.994;2024-01-15T13:35:05;11.60;;;2.55;;
30505;SDS011;17292;51.600;4.994;2024-01-15T13:37:34;6.75;;;2.38;;
30505;SDS011;17292;51.600;4.994;2024-01-15T13:40:04;12.77;;;2.70;;
30505;SDS011;17292;51.600;4.994;2024-01-15T13:42:32;13.05;;;2.72;;
30505;SDS011;17292;51.600;4.994;2024-01-15T13:44:58;16.40;;;2.35;;
30505;SDS011;17292;51.600;4.994;2024-01-15T13:47:25;8.65;;;2.60;;
30505;SDS011;17292;51.600;4.994;2024-01-15T13:49:51;12.63;;;2.50;;
30505;SDS011;17292;51.600;4.994;2024-01-15T13:52:17;12.98;;;2.40;;
30505;SDS011;17292;51.600;4.994;2024-01-15T13:54:44;11.18;;;2.72;;
30505;SDS011;17292;51.600;4.994;2024-01-15T13:57:10;7.40;;;2.63;;
30505;SDS011;17292;51.600;4.994;2024-01-15T13:59:36;10.48;;;2.70;;
30505;SDS011;17292;51.600;4.994;2024-01-15T14:02:03;14.07;;;2.80;;
30505;SDS011;17292;51.600;4.994;2024-01-15T14:04:30;19.08;;;2.60;;
30505;SDS011;17292;51.600;4.994;2024-01-15T14:06:56;19.90;;;3.15;;
30505;SDS011;17292;51.600;4.994;2024-01-15T14:09:22;19.10;;;2.80;;
30505;SDS011;17292;51.600;4.994;2024-01-15T14:11:48;8.00;;;2.60;;
30505;SDS011;17292;51.600;4.994;2024-01-15T14:14:15;22.23;;;3.05;;
30505;SDS011;17292;51.600;4.994;2024-01-15T14:16:42;11.02;;;2.58;;
30505;SDS011;17292;51.600;4.994;2024-01-15T14:19:08;17.10;;;3.05;;
30505;SDS011;17292;51.600;4.994;2024-01-15T14:21:35;15.25;;;3.03;;
30505;SDS011;17292;51.600;4.994;2024-01-15T14:24:01;12.80;;;2.50;;
30505;SDS011;17292;51.600;4.994;2024-01-15T14:26:27;10.50;;;2.45;;
30505;SDS011;17292;51.600;4.994;2024-01-15T14:28:53;12.77;;;2.53;;
30505;SDS011;17292;51.600;4.994;2024-01-15T14:31:20;10.02;;;2.70;;
30505;SDS011;17292;51.600;4.994;2024-01-15T14:33:46;14.82;;;2.70;;
30505;SDS011;17292;51.600;4.994;2024-01-15T14:36:12;10.70;;;2.35;;
30505;SDS011;17292;51.600;4.994;2024-01-15T14:38:38;13.35;;;2.53;;
30505;SDS011;17292;51.600;4.994;2024-01-15T14:41:04;14.57;;;2.50;;
30505;SDS011;17292;51.600;4.994;2024-01-15T14:43:30;13.70;;;2.92;;
30505;SDS011;17292;51.600;4.994;2024-01-15T14:45:58;8.18;;;2.20;;
30505;SDS011;17292;51.600;4.994;2024-01-15T14:48:25;9.60;;;2.47;;
30505;SDS011;17292;51.600;4.994;2024-01-15T14:50:51;11.63;;;2.67;;
30505;SDS011;17292;51.600;4.994;2024-01-15T14:53:17;7.50;;;2.03;;
30505;SDS011;17292;51.600;4.994;2024-01-15T14:55:43;10.45;;;2.40;;
30505;SDS011;17292;51.600;4.994;2024-01-15T14:58:09;13.75;;;2.50;;
30505;SDS011;17292;51.600;4.994;2024-01-15T15:00:35;4.18;;;1.92;;
30505;SDS011;17292;51.600;4.994;2024-01-15T15:03:02;8.98;;;2.60;;
30505;SDS011;17292;51.600;4.994;2024-01-15T15:05:28;12.25;;;2.42;;